Time;durP1;ratioP1;P1;durP2;ratioP2;P2;SDS_P1;SDS_P2;PMS_P1;PMS_P2;Temp;Humidity;BMP_temperature;BMP_pressure;BME280_temperature;BME280_humidity;BME280_pressure;Samples;Min_cycle;Max_cycle;Signal;HPM_P1;HPM_P2
2020/12/19 00:02:21;;;;;;;33.20;21.82;;;;;;;8.96;65.84;102995.42;1623682;88;21204;-47
2020/12/19 00:04:51;;;;;;;33.08;23.30;;;;;;;8.89;66.01;102996.13;1624369;88;21200;-46
2020/12/19 00:07:20;;;;;;;33.02;22.37;;;;;;;8.89;66.24;102996.13;1624570;88;21181;-47
2020/12/19 00:09:48;;;;;;;36.35;23.60;;;;;;;8.78;66.80;102995.02;1624361;88;21704;-46
2020/12/19 00:12:21;;;;;;;35.25;24.00;;;;;;;8.67;67.33;102993.94;1622289;88;21625;-48
2020/12/19 00:14:50;;;;;;;36.53;23.45;;;;;;;8.60;67.70;102992.05;1622133;88;21254;-48
2020/12/19 00:17:18;;;;;;;38.23;24.05;;;;;;;8.57;67.95;102988.09;1621478;88;21327;-48
2020/12/19 00:19:47;;;;;;;40.48;25.05;;;;;;;8.57;68.08;102984.20;1698240;82;21144;-47
2020/12/19 00:22:15;;;;;;;37.17;23.55;;;;;;;8.58;68.23;102988.53;1742453;82;21156;-48
2020/12/19 00:24:43;;;;;;;36.58;24.27;;;;;;;8.58;68.30;102991.12;1741402;82;21690;-48
2020/12/19 00:27:11;;;;;;;37.65;24.18;;;;;;;8.61;68.26;102994.70;1743498;82;21290;-48
2020/12/19 00:29:39;;;;;;;41.13;24.65;;;;;;;8.59;68.27;102992.90;1742153;82;21152;-47
2020/12/19 00:32:08;;;;;;;37.25;25.90;;;;;;;8.56;68.26;102990.22;1744825;82;21152;-48
2020/12/19 00:34:39;;;;;;;45.58;25.35;;;;;;;8.55;68.20;102991.08;1740866;81;21160;-48
2020/12/19 00:37:07;;;;;;;37.08;23.45;;;;;;;8.56;68.13;102995.41;1747440;82;21176;-47
2020/12/19 00:39:36;;;;;;;34.95;22.58;;;;;;;8.54;68.11;102991.91;1738697;82;21620;-48
2020/12/19 00:42:04;;;;;;;41.68;24.55;;;;;;;8.53;68.19;102983.24;1745664;82;21329;-47
2020/12/19 00:44:33;;;;;;;39.18;24.20;;;;;;;8.55;68.07;102983.30;1742349;82;21614;-48
2020/12/19 00:47:01;;;;;;;36.55;23.45;;;;;;;8.55;68.02;102978.11;1742498;82;21192;-47
2020/12/19 00:49:29;;;;;;;38.35;24.05;;;;;;;8.55;68.05;102985.89;1742567;82;21160;-47
2020/12/19 00:51:57;;;;;;;39.15;23.30;;;;;;;8.58;68.13;102983.34;1746035;82;21151;-48
2020/12/19 00:54:25;;;;;;;38.08;22.80;;;;;;;8.61;68.19;102980.83;1741271;82;21167;-48
2020/12/19 00:56:54;;;;;;;39.08;24.47;;;;;;;8.65;68.16;102982.65;1742053;82;21157;-48
2020/12/19 00:59:23;;;;;;;40.95;25.08;;;;;;;8.72;68.06;102981.92;1734995;80;21302;-47
2020/12/19 01:01:51;;;;;;;39.03;25.40;;;;;;;8.74;67.89;102983.70;1762955;81;21149;-47
2020/12/19 01:04:23;;;;;;;37.25;25.05;;;;;;;8.77;67.76;102983.79;1763728;81;21141;-47
2020/12/19 01:06:50;;;;;;;35.45;22.02;;;;;;;8.79;67.73;102978.20;1771304;81;21133;-48
2020/12/19 01:09:19;;;;;;;36.13;22.90;;;;;;;8.81;67.65;102976.52;1766526;80;21637;-47
2020/12/19 01:11:47;;;;;;;41.83;26.10;;;;;;;8.84;67.69;102978.30;1679376;84;21172;-48
2020/12/19 01:14:15;;;;;;;41.30;23.77;;;;;;;8.88;67.67;102978.82;1767250;81;21117;-48
2020/12/19 01:16:43;;;;;;;40.30;24.30;;;;;;;8.89;67.71;102975.36;1680078;85;21140;-47
2020/12/19 01:19:11;;;;;;;37.23;22.93;;;;;;;8.89;67.54;102971.05;1769276;81;21291;-47
2020/12/19 01:21:39;;;;;;;36.38;22.02;;;;;;;8.90;67.56;102973.23;1768373;81;21178;-48
2020/12/19 01:24:07;;;;;;;37.67;21.95;;;;;;;8.90;67.44;102970.64;1767351;80;21145;-48
2020/12/19 01:26:35;;;;;;;37.38;21.75;;;;;;;8.93;67.38;102966.79;1680070;85;21161;-48
2020/12/19 01:29:04;;;;;;;34.15;22.00;;;;;;;8.93;67.00;102961.59;1768929;81;21585;-49
2020/12/19 01:31:32;;;;;;;37.13;22.07;;;;;;;8.90;66.94;102963.70;1765894;81;21589;-48
2020/12/19 01:34:00;;;;;;;37.83;23.18;;;;;;;8.89;66.84;102968.45;1747240;81;21343;-48
2020/12/19 01:36:28;;;;;;;39.40;23.67;;;;;;;8.88;66.82;102955.45;1771339;81;21562;-47
2020/12/19 01:38:56;;;;;;;37.17;23.40;;;;;;;8.87;66.88;102954.98;1762138;81;21153;-48
2020/12/19 01:41:24;;;;;;;36.48;23.00;;;;;;;8.86;66.93;102953.25;1768774;81;21276;-47
2020/12/19 01:43:55;;;;;;;40.85;22.87;;;;;;;8.87;66.93;102951.09;1766997;81;21189;-47
2020/12/19 01:46:27;;;;;;;37.20;22.20;;;;;;;8.85;66.79;102955.37;1766861;81;21601;-47
2020/12/19 01:48:57;;;;;;;;;;;;;;;8.84;66.80;102952.34;1772114;81;21148;-48
2020/12/19 01:51:27;;;;;;;37.23;22.42;;;;;;;8.83;66.93;102951.87;1767385;81;20136;-48
2020/12/19 01:53:57;;;;;;;36.88;22.62;;;;;;;8.82;67.00;102954.89;1771937;81;21203;-47
2020/12/19 01:56:45;;;;;;;39.33;22.77;;;;;;;8.83;67.09;102955.77;1679017;84;21165;-47
2020/12/19 01:59:14;;;;;;;36.08;21.50;;;;;;;8.85;67.01;102947.59;1767902;81;21330;-48
2020/12/19 02:01:50;;;;;;;38.00;22.02;;;;;;;8.68;67.54;102948.95;1756332;81;21153;-47
2020/12/19 02:04:19;;;;;;;40.43;23.92;;;;;;;8.83;67.14;102950.58;1750397;82;21189;-47
2020/12/19 02:06:55;;;;;;;34.88;21.50;;;;;;;8.83;67.05;102947.98;1756065;81;21169;-48
2020/12/19 02:09:30;;;;;;;35.17;21.65;;;;;;;8.84;67.03;102945.86;1756055;81;21181;-47
2020/12/19 02:11:58;;;;;;;36.03;20.62;;;;;;;8.84;67.02;102948.45;1756219;82;21165;-47
2020/12/19 02:14:31;;;;;;;36.80;22.67;;;;;;;8.87;67.04;102939.41;1756024;81;21287;-47
2020/12/19 02:17:07;;;;;;;36.70;22.75;;;;;;;8.87;67.00;102935.10;1756005;82;21152;-47
2020/12/19 02:19:35;;;;;;;33.33;21.75;;;;;;;8.86;67.06;102932.03;1690959;85;21322;-47
2020/12/19 02:22:06;;;;;;;35.35;22.35;;;;;;;8.86;67.15;102942.87;1688450;85;21176;-48
2020/12/19 02:24:41;;;;;;;32.25;20.43;;;;;;;8.89;67.11;102930.81;1810119;79;22232;-47
2020/12/19 02:27:09;;;;;;;29.77;19.35;;;;;;;8.88;66.96;102934.69;1783808;80;21579;-46
2020/12/19 02:29:37;;;;;;;29.65;19.90;;;;;;;8.89;66.74;102929.52;1777181;80;21301;-46
2020/12/19 02:32:06;;;;;;;33.65;20.30;;;;;;;8.89;66.54;102933.83;1777029;80;21282;-46
2020/12/19 02:34:34;;;;;;;29.07;19.48;;;;;;;8.87;66.45;102932.92;1778214;80;21289;-46
2020/12/19 02:37:02;;;;;;;27.77;18.35;;;;;;;8.87;66.48;102935.52;1780450;80;21532;-46
2020/12/19 02:39:30;;;;;;;25.68;16.95;;;;;;;8.87;66.47;102943.30;1780393;80;21159;-47
2020/12/19 02:41:58;;;;;;;24.92;16.93;;;;;;;8.86;66.08;102945.02;1777612;80;21198;-46
2020/12/19 02:44:27;;;;;;;25.45;16.75;;;;;;;8.87;65.88;102936.81;1778345;80;21286;-46
2020/12/19 02:46:56;;;;;;;24.70;17.07;;;;;;;8.87;65.66;102948.50;1779125;80;21148;-46
2020/12/19 02:49:25;;;;;;;23.87;16.17;;;;;;;8.84;65.41;102948.45;1766300;80;21163;-46
2020/12/19 02:51:53;;;;;;;23.65;16.25;;;;;;;8.80;65.17;102946.61;1780067;80;21163;-47
2020/12/19 02:54:21;;;;;;;22.13;15.48;;;;;;;8.77;65.21;102951.75;1779116;80;21289;-46
2020/12/19 02:56:49;;;;;;;20.27;15.20;;;;;;;8.74;65.18;102950.38;1776677;80;21297;-48
2020/12/19 02:59:18;;;;;;;21.65;15.75;;;;;;;8.72;65.21;102958.55;1780104;80;21273;-46
2020/12/19 03:01:46;;;;;;;24.98;16.40;;;;;;;8.71;65.16;102959.42;1779232;80;21592;-46
2020/12/19 03:04:14;;;;;;;22.50;15.43;;;;;;;8.70;65.19;102956.35;1776734;80;21135;-46
2020/12/19 03:06:43;;;;;;;25.32;16.82;;;;;;;8.67;65.12;102958.91;1777161;80;21277;-47
2020/12/19 03:09:11;;;;;;;24.47;16.65;;;;;;;8.65;65.00;102961.89;1776397;80;21136;-47
2020/12/19 03:11:40;;;;;;;22.73;15.18;;;;;;;8.63;64.90;102967.47;1777117;80;21120;-47
2020/12/19 03:14:08;;;;;;;21.50;15.30;;;;;;;8.58;64.97;102962.59;1776480;80;21151;-46
2020/12/19 03:16:36;;;;;;;21.77;15.72;;;;;;;8.57;64.75;102957.81;1778992;80;21167;-47
2020/12/19 03:19:05;;;;;;;20.77;15.55;;;;;;;8.58;64.51;102962.59;1775782;80;21152;-46
2020/12/19 03:21:34;;;;;;;19.57;14.65;;;;;;;8.56;64.28;102954.78;1768700;80;21147;-46
2020/12/19 03:24:02;;;;;;;22.98;15.32;;;;;;;8.52;64.09;102952.08;1777016;80;21714;-47
2020/12/19 03:26:30;;;;;;;21.73;14.68;;;;;;;8.48;63.90;102948.55;1766453;80;21132;-46
2020/12/19 03:28:59;;;;;;;20.85;14.50;;;;;;;8.45;64.03;102941.13;1780293;80;21280;-46
2020/12/19 03:31:27;;;;;;;18.60;14.38;;;;;;;8.44;63.94;102943.26;1779287;80;21147;-46
2020/12/19 03:33:55;;;;;;;17.50;13.22;;;;;;;8.43;63.75;102942.82;1777334;80;21162;-46
2020/12/19 03:36:25;;;;;;;19.42;14.07;;;;;;;8.42;63.53;102936.75;1757836;80;21140;-47
2020/12/19 03:38:54;;;;;;;17.05;12.63;;;;;;;8.41;63.53;102935.42;1761985;81;21269;-47
2020/12/19 03:41:22;;;;;;;18.40;13.53;;;;;;;8.40;62.99;102933.66;1774109;80;21131;-47
2020/12/19 03:43:50;;;;;;;17.55;13.58;;;;;;;8.35;62.99;102935.27;1782949;80;21127;-47
2020/12/19 03:46:19;;;;;;;17.67;13.72;;;;;;;8.32;63.03;102932.62;1778134;80;21144;-47
2020/12/19 03:48:47;;;;;;;18.30;12.40;;;;;;;8.29;63.16;102929.94;1776321;80;21269;-47
2020/12/19 03:51:16;;;;;;;16.73;11.83;;;;;;;8.26;63.24;102933.78;1769462;80;21147;-47
2020/12/19 03:53:45;;;;;;;15.50;11.20;;;;;;;8.24;63.18;102928.09;1776030;80;21329;-47
2020/12/19 03:56:13;;;;;;;14.80;11.28;;;;;;;8.24;63.14;102925.94;1779037;80;21147;-47
2020/12/19 03:58:42;;;;;;;15.38;11.45;;;;;;;8.93;61.12;102933.03;1773766;80;21572;-47
2020/12/19 04:01:10;;;;;;;14.80;11.05;;;;;;;8.97;60.66;102923.16;1777045;80;21270;-46
2020/12/19 04:03:38;;;;;;;15.98;10.82;;;;;;;8.98;60.36;102927.08;1776171;80;21156;-47
2020/12/19 04:06:06;;;;;;;14.18;10.85;;;;;;;8.97;60.11;102920.15;1776472;80;21302;-47
2020/12/19 04:08:34;;;;;;;13.62;9.68;;;;;;;8.95;60.02;102929.62;1766134;80;21321;-47
2020/12/19 04:11:02;;;;;;;12.58;8.88;;;;;;;8.94;59.97;102924.42;1779755;80;21274;-47
2020/12/19 04:13:31;;;;;;;13.65;10.35;;;;;;;8.96;59.98;102927.92;1751202;80;21207;-47
2020/12/19 04:15:59;;;;;;;13.30;10.82;;;;;;;8.97;59.82;102927.05;1777234;80;21512;-46
2020/12/19 04:18:27;;;;;;;12.70;9.78;;;;;;;8.98;59.77;102934.02;1777641;80;21167;-47
2020/12/19 04:20:56;;;;;;;13.58;10.38;;;;;;;8.98;59.73;102930.97;1766045;80;21136;-47
2020/12/19 04:23:24;;;;;;;15.60;11.33;;;;;;;8.96;59.60;102933.11;1778486;80;21148;-46
2020/12/19 04:25:52;;;;;;;15.70;11.73;;;;;;;8.92;59.69;102927.41;1776928;80;21175;-47
2020/12/19 04:28:21;;;;;;;16.12;11.20;;;;;;;8.90;59.82;102935.59;1775143;80;21147;-47
2020/12/19 04:30:49;;;;;;;16.12;11.25;;;;;;;8.91;59.95;102934.73;1778902;80;21144;-46
2020/12/19 04:33:18;;;;;;;15.10;11.12;;;;;;;8.92;59.80;102937.34;1779706;80;21135;-47
2020/12/19 04:35:47;;;;;;;17.05;10.90;;;;;;;8.95;59.74;102936.13;1779672;80;21135;-47
2020/12/19 04:38:15;;;;;;;13.20;10.30;;;;;;;8.37;61.22;102934.87;1777350;80;21155;-47
2020/12/19 04:40:43;;;;;;;13.72;10.28;;;;;;;8.19;62.05;102940.09;1776438;80;21135;-47
2020/12/19 04:43:17;;;;;;;13.90;10.63;;;;;;;8.13;62.19;102942.55;1776336;80;21154;-47
2020/12/19 04:45:46;;;;;;;14.38;11.33;;;;;;;8.10;62.17;102945.06;1776397;80;21127;-47
2020/12/19 04:48:18;;;;;;;13.45;10.25;;;;;;;8.08;62.38;102949.75;1776436;80;21140;-47
2020/12/19 04:50:47;;;;;;;15.55;11.60;;;;;;;8.07;62.59;102947.59;1775259;80;21175;-47
2020/12/19 04:53:17;;;;;;;14.85;11.22;;;;;;;8.07;62.63;102950.19;1769835;80;21147;-47
2020/12/19 04:55:46;;;;;;;14.65;10.65;;;;;;;8.05;62.64;102950.98;1778228;80;21144;-47
2020/12/19 05:00:53;;;;;;;14.87;10.85;;;;;;;8.04;63.15;102946.62;1809545;79;22974;-46
2020/12/19 05:03:21;;;;;;;14.13;10.40;;;;;;;7.98;63.43;102955.15;1726596;83;21322;-46
2020/12/19 05:05:50;;;;;;;15.50;11.28;;;;;;;7.96;63.77;102961.13;1739932;82;21119;-47
2020/12/19 05:08:19;;;;;;;14.60;11.75;;;;;;;8.69;61.79;102961.99;1749228;81;21152;-46
2020/12/19 05:10:48;;;;;;;13.38;10.53;;;;;;;8.17;63.01;102965.13;1748561;81;21148;-47
2020/12/19 05:13:19;;;;;;;16.00;11.55;;;;;;;8.01;63.79;102961.72;1665915;83;21612;-46
2020/12/19 05:15:47;;;;;;;17.07;11.95;;;;;;;7.99;64.13;102964.70;1718450;83;21159;-46
2020/12/19 05:18:16;;;;;;;14.38;11.20;;;;;;;7.98;64.26;102969.41;1720377;83;21186;-46
2020/12/19 05:20:45;;;;;;;15.65;11.38;;;;;;;7.97;64.47;102961.19;1691910;83;21164;-46
2020/12/19 05:23:13;;;;;;;18.07;11.25;;;;;;;7.99;64.56;102975.48;1716114;83;21311;-46
2020/12/19 05:25:41;;;;;;;16.82;12.20;;;;;;;7.99;64.75;102973.77;1713094;83;21160;-47
2020/12/19 05:28:09;;;;;;;16.93;12.13;;;;;;;7.99;64.85;102969.88;1690695;82;21163;-47
2020/12/19 05:30:37;;;;;;;18.10;13.53;;;;;;;8.00;64.92;102973.33;1754399;81;21757;-46
2020/12/19 05:33:06;;;;;;;18.50;12.75;;;;;;;7.99;65.10;102969.88;1734766;82;21217;-47
2020/12/19 05:35:35;;;;;;;17.77;12.68;;;;;;;7.99;65.35;102980.25;1750903;81;21290;-47
2020/12/19 05:38:05;;;;;;;19.07;13.08;;;;;;;8.02;65.54;102980.30;1712542;83;21223;-47
2020/12/19 05:40:33;;;;;;;23.52;14.00;;;;;;;8.02;65.46;102988.09;1756689;81;21133;-46
2020/12/19 05:43:01;;;;;;;23.27;13.53;;;;;;;7.96;65.54;102990.94;1739860;82;21186;-46
2020/12/19 05:45:30;;;;;;;21.02;14.80;;;;;;;7.93;65.81;102987.84;1744939;81;21162;-46
2020/12/19 05:47:58;;;;;;;20.48;14.50;;;;;;;7.93;66.02;102992.19;1733839;81;21152;-46
2020/12/19 05:50:26;;;;;;;19.48;14.73;;;;;;;7.92;66.28;102987.41;1743902;81;21319;-49
2020/12/19 05:52:54;;;;;;;18.90;13.32;;;;;;;7.91;66.21;102993.41;1751638;81;21583;-46
2020/12/19 05:55:23;;;;;;;19.00;14.38;;;;;;;7.84;66.08;102992.83;1691953;84;21194;-46
2020/12/19 05:57:51;;;;;;;21.87;15.43;;;;;;;7.69;66.30;102998.91;1729161;82;21297;-46
2020/12/19 06:00:19;;;;;;;19.67;14.13;;;;;;;7.58;66.70;103008.14;1719157;82;21189;-48
2020/12/19 06:02:48;;;;;;;18.65;13.95;;;;;;;7.51;67.00;103002.33;1712114;83;21126;-48
2020/12/19 06:05:17;;;;;;;20.80;13.48;;;;;;;7.40;67.41;103010.22;1773923;81;21545;-48
2020/12/19 06:07:46;;;;;;;22.22;15.58;;;;;;;7.33;67.65;103021.27;1767015;81;21172;-47
2020/12/19 06:10:16;;;;;;;18.60;13.20;;;;;;;7.22;68.11;103021.38;1762729;81;21558;-47
2020/12/19 06:13:05;;;;;;;22.80;15.45;;;;;;;7.20;68.31;103018.75;1767984;81;21176;-47
2020/12/19 06:15:51;;;;;;;24.80;17.15;;;;;;;7.16;68.52;103026.38;1767124;81;21578;-48
2020/12/19 06:18:48;;;;;;;23.75;15.50;;;;;;;7.11;68.77;103026.25;1761632;81;21176;-47
2020/12/19 06:21:16;;;;;;;21.62;15.32;;;;;;;7.33;68.31;103025.15;1707876;84;21140;-46
2020/12/19 06:23:45;;;;;;;21.05;16.48;;;;;;;7.29;68.35;103028.49;1766194;81;21335;-46
2020/12/19 06:26:14;;;;;;;21.48;15.03;;;;;;;7.10;69.09;103030.98;1767412;81;21145;-47
2020/12/19 06:28:45;;;;;;;20.70;15.18;;;;;;;7.10;69.22;103028.80;1770398;81;21157;-47
2020/12/19 06:31:23;;;;;;;21.10;14.43;;;;;;;7.12;69.20;103037.48;1703119;84;21136;-47
2020/12/19 06:33:53;;;;;;;21.07;15.65;;;;;;;7.11;69.13;103038.34;1770253;81;21605;-47
2020/12/19 06:36:27;;;;;;;23.40;15.00;;;;;;;7.11;69.11;103030.58;1769015;81;21205;-48
2020/12/19 06:39:12;;;;;;;19.40;15.35;;;;;;;7.14;69.10;103033.23;1761234;81;21141;-47
2020/12/19 06:41:56;;;;;;;25.02;16.90;;;;;;;7.14;68.84;103033.23;1706722;84;21172;-46
2020/12/19 06:44:30;;;;;;;24.02;16.75;;;;;;;7.11;68.69;103034.45;1762598;81;21165;-47
2020/12/19 06:47:00;;;;;;;23.27;16.57;;;;;;;7.08;68.85;103033.95;1708937;84;21159;-47
2020/12/19 06:49:35;;;;;;;23.47;16.20;;;;;;;7.10;68.90;103031.39;1765443;81;21185;-47
2020/12/19 06:52:14;;;;;;;23.98;15.78;;;;;;;7.16;68.86;103030.27;1763394;81;21299;-47
2020/12/19 06:54:44;;;;;;;21.48;15.65;;;;;;;7.18;68.50;103029.89;1709255;83;21172;-46
2020/12/19 06:57:25;;;;;;;23.60;16.27;;;;;;;7.18;68.48;103032.48;1763239;81;21153;-47
2020/12/19 06:59:55;;;;;;;24.95;16.77;;;;;;;7.18;68.47;103037.66;1711786;83;21144;-47
2020/12/19 07:02:24;;;;;;;23.22;16.73;;;;;;;7.19;68.46;103026.48;1787021;80;21160;-47
2020/12/19 07:04:52;;;;;;;22.65;16.07;;;;;;;7.21;68.50;103027.41;1778475;80;21164;-47
2020/12/19 07:07:26;;;;;;;22.25;15.60;;;;;;;7.27;68.68;103027.58;1717184;83;21186;-46
2020/12/19 07:09:56;;;;;;;24.35;17.30;;;;;;;7.35;68.53;103032.13;1672193;84;21252;-46
2020/12/19 07:12:36;;;;;;;26.70;17.65;;;;;;;7.42;68.20;103029.27;1733059;81;21180;-46
2020/12/19 07:15:09;;;;;;;24.05;16.95;;;;;;;7.48;68.11;103025.55;1733420;82;21188;-46
2020/12/19 07:17:47;;;;;;;22.35;16.55;;;;;;;7.55;67.85;103023.59;1732997;82;21199;-46
2020/12/19 07:20:22;;;;;;;22.48;16.32;;;;;;;7.61;67.64;103030.23;1741832;82;21343;-46
2020/12/19 07:22:50;;;;;;;22.55;16.32;;;;;;;7.99;66.54;103026.92;1731384;82;21177;-46
2020/12/19 07:25:20;;;;;;;22.07;15.65;;;;;;;7.76;66.95;103027.16;1730396;82;21156;-46
2020/12/19 07:27:49;;;;;;;22.87;16.77;;;;;;;7.74;66.63;103034.91;1730450;82;21318;-46
2020/12/19 07:30:17;;;;;;;24.10;16.52;;;;;;;7.73;66.47;103032.28;1731932;82;21310;-46
2020/12/19 07:32:45;;;;;;;26.05;17.62;;;;;;;7.72;66.52;103023.63;1732986;81;21168;-46
2020/12/19 07:35:14;;;;;;;21.42;16.00;;;;;;;7.76;66.69;103028.45;1733115;82;21180;-45
2020/12/19 07:37:42;;;;;;;22.70;16.35;;;;;;;7.80;66.45;103025.98;1736791;82;21149;-45
2020/12/19 07:40:12;;;;;;;25.68;16.02;;;;;;;7.83;66.35;103020.86;1730288;82;21239;-46
2020/12/19 07:42:41;;;;;;;19.48;15.65;;;;;;;7.89;66.49;103021.02;1731128;82;21203;-46
2020/12/19 07:45:16;;;;;;;22.15;16.10;;;;;;;7.95;66.33;103018.61;1732950;82;21719;-46
2020/12/19 07:47:51;;;;;;;26.97;16.30;;;;;;;8.05;66.25;103016.70;1771381;79;22804;-46
2020/12/19 07:50:27;;;;;;;22.62;16.23;;;;;;;8.08;66.02;103021.94;1740038;82;21169;-47
2020/12/19 07:53:04;;;;;;;21.50;16.23;;;;;;;8.13;65.92;103020.34;1741134;82;21132;-46
2020/12/19 07:55:34;;;;;;;23.27;17.02;;;;;;;8.19;65.53;103024.80;1738428;82;21137;-46
2020/12/19 07:58:03;;;;;;;22.17;16.67;;;;;;;8.22;65.33;103020.55;1738157;82;21145;-46
2020/12/19 08:00:32;;;;;;;21.05;16.48;;;;;;;8.26;65.28;103023.27;1737775;82;21140;-46
2020/12/19 08:03:00;;;;;;;24.70;18.52;;;;;;;8.28;65.24;103016.39;1738065;82;21169;-46
2020/12/19 08:05:28;;;;;;;21.73;16.40;;;;;;;8.31;65.19;103015.15;1704229;83;21121;-46
2020/12/19 08:07:56;;;;;;;21.17;16.07;;;;;;;8.34;65.16;103012.23;1741198;82;21302;-45
2020/12/19 08:10:27;;;;;;;21.82;15.93;;;;;;;8.39;65.06;103017.53;1740034;82;21279;-46
2020/12/19 08:12:55;;;;;;;20.12;15.75;;;;;;;8.43;64.90;103012.87;1738074;82;21577;-46
2020/12/19 08:15:23;;;;;;;19.25;14.15;;;;;;;8.47;64.38;103019.87;1737631;81;21152;-46
2020/12/19 08:17:58;;;;;;;21.42;14.95;;;;;;;8.42;64.04;103022.77;1738226;82;21177;-45
2020/12/19 08:20:33;;;;;;;20.37;14.83;;;;;;;8.35;63.72;103024.75;1703173;83;21220;-46
2020/12/19 08:23:07;;;;;;;20.52;14.23;;;;;;;8.28;63.87;103025.47;1702282;83;21164;-45
2020/12/19 08:25:36;;;;;;;19.77;14.90;;;;;;;8.19;63.95;103019.19;1700636;83;21627;-46
2020/12/19 08:28:20;;;;;;;21.33;15.53;;;;;;;8.21;64.09;103017.92;1771675;79;22962;-47
2020/12/19 08:30:50;;;;;;;23.92;15.35;;;;;;;8.14;64.34;103018.61;1737707;82;21208;-47
2020/12/19 08:33:18;;;;;;;20.20;15.05;;;;;;;8.12;64.60;103014.69;1734583;82;21202;-47
2020/12/19 08:35:46;;;;;;;19.45;15.05;;;;;;;8.10;64.69;103019.37;1740607;82;21152;-48
2020/12/19 08:38:21;;;;;;;16.80;13.38;;;;;;;8.07;65.02;103011.12;1738263;82;21213;-47
2020/12/19 08:40:50;;;;;;;18.32;13.43;;;;;;;8.08;65.10;103011.56;1746581;82;21125;-47
2020/12/19 08:43:20;;;;;;;20.45;13.55;;;;;;;8.10;65.15;103008.59;1741429;82;21188;-47
2020/12/19 08:45:48;;;;;;;16.35;12.60;;;;;;;8.08;64.67;103008.97;1737390;82;21290;-49
2020/12/19 08:48:24;;;;;;;17.70;13.20;;;;;;;8.02;64.70;103003.64;1742081;82;21184;-47
2020/12/19 08:50:54;;;;;;;16.85;12.70;;;;;;;7.96;64.81;103006.09;1736664;82;21165;-47
2020/12/19 08:53:25;;;;;;;17.73;12.70;;;;;;;7.94;65.25;103007.77;1742806;82;21605;-47
2020/12/19 08:55:54;;;;;;;16.60;12.50;;;;;;;7.94;65.06;103007.77;1732583;82;21184;-48
2020/12/19 08:58:30;;;;;;;13.85;11.38;;;;;;;7.93;65.25;103003.41;1744610;82;21851;-46
2020/12/19 09:01:00;;;;;;;14.40;11.30;;;;;;;7.94;65.10;103002.58;1738015;82;21149;-46
2020/12/19 09:03:31;;;;;;;17.85;11.97;;;;;;;7.95;64.93;103003.05;1725957;82;21128;-47
2020/12/19 09:06:04;;;;;;;16.87;13.62;;;;;;;7.93;64.92;102998.22;1737084;82;21609;-46
2020/12/19 09:08:47;;;;;;;15.72;12.33;;;;;;;7.91;65.11;102994.71;1736222;82;21168;-46
2020/12/19 09:11:31;;;;;;;13.62;10.63;;;;;;;7.88;65.34;102993.36;1741888;82;21169;-46
2020/12/19 09:14:09;;;;;;;13.68;10.30;;;;;;;7.85;65.24;102986.79;1739450;82;21153;-47
2020/12/19 09:16:50;;;;;;;14.70;11.05;;;;;;;7.86;65.10;102988.56;1740242;82;21156;-47
2020/12/19 09:19:18;;;;;;;11.90;10.28;;;;;;;7.85;65.16;102991.97;1687706;84;21195;-46
2020/12/19 09:22:05;;;;;;;16.27;12.45;;;;;;;7.81;65.21;102989.30;1666689;85;21818;-47
2020/12/19 09:24:33;;;;;;;16.25;12.75;;;;;;;7.79;65.38;102978.86;1685639;84;21309;-47
2020/12/19 09:27:02;;;;;;;14.38;11.80;;;;;;;7.79;65.32;102985.34;1659226;85;21302;-47
2020/12/19 09:29:31;;;;;;;13.68;10.63;;;;;;;7.78;65.44;102983.61;1628783;87;21242;-47
2020/12/19 09:31:59;;;;;;;13.08;10.95;;;;;;;7.78;65.42;102984.91;1678568;84;21586;-47
2020/12/19 09:34:27;;;;;;;13.85;10.80;;;;;;;7.78;65.62;102984.02;1684702;84;21316;-47
2020/12/19 09:36:55;;;;;;;15.13;11.43;;;;;;;7.81;65.29;102981.52;1682370;84;21181;-46
2020/12/19 09:39:23;;;;;;;12.75;9.85;;;;;;;7.79;65.21;102976.27;1680715;84;21604;-47
2020/12/19 09:41:51;;;;;;;13.50;9.15;;;;;;;7.80;65.26;102975.45;1681524;84;21162;-47
2020/12/19 09:44:20;;;;;;;12.18;9.38;;;;;;;7.77;65.33;102974.06;1680993;84;21356;-46
2020/12/19 09:46:49;;;;;;;12.37;10.55;;;;;;;7.66;65.61;102979.41;1681192;84;21324;-47
2020/12/19 09:49:18;;;;;;;13.03;9.73;;;;;;;7.71;65.34;102968.73;1682596;84;21213;-46
2020/12/19 09:51:46;;;;;;;14.38;10.98;;;;;;;7.68;65.30;102968.67;1681252;84;21158;-46
2020/12/19 09:54:14;;;;;;;13.78;10.18;;;;;;;7.64;65.70;102970.73;1683238;84;21153;-47
2020/12/19 09:56:42;;;;;;;11.95;9.30;;;;;;;7.65;65.41;102963.39;1716808;82;21156;-46
2020/12/19 09:59:10;;;;;;;11.65;9.10;;;;;;;7.63;65.54;102957.71;1734841;82;21612;-46
2020/12/19 10:01:40;;;;;;;13.22;10.63;;;;;;;7.66;65.54;102961.28;1744881;82;21160;-46
2020/12/19 10:04:09;;;;;;;12.85;9.93;;;;;;;7.69;65.49;102957.45;1734523;82;21157;-45
2020/12/19 10:06:37;;;;;;;12.00;9.08;;;;;;;7.71;65.51;102956.18;1734606;82;21141;-46
2020/12/19 10:09:05;;;;;;;12.10;9.75;;;;;;;7.73;65.55;102955.39;1740926;82;21156;-46
2020/12/19 10:11:33;;;;;;;12.65;9.88;;;;;;;7.77;65.64;102954.63;1738167;82;21168;-46
2020/12/19 10:14:02;;;;;;;13.72;9.48;;;;;;;7.80;65.54;102953.42;1739004;80;21133;-46
2020/12/19 10:16:30;;;;;;;11.70;9.43;;;;;;;7.82;65.44;102953.03;1737591;82;21577;-47
2020/12/19 10:18:58;;;;;;;13.95;10.13;;;;;;;7.85;65.38;102949.20;1740470;82;21176;-46
2020/12/19 10:21:27;;;;;;;12.73;10.78;;;;;;;7.84;65.47;102946.17;1734868;82;21145;-46
2020/12/19 10:23:55;;;;;;;12.47;9.80;;;;;;;7.84;65.75;102943.58;1744346;82;21180;-47
2020/12/19 10:26:23;;;;;;;17.05;11.38;;;;;;;7.89;65.62;102947.14;1732215;82;21172;-46
2020/12/19 10:28:51;;;;;;;13.83;10.08;;;;;;;7.91;65.53;102946.76;1743382;82;21133;-47
2020/12/19 10:31:19;;;;;;;11.83;9.53;;;;;;;7.97;65.69;102941.75;1736501;82;21604;-47
2020/12/19 10:33:47;;;;;;;13.75;10.35;;;;;;;8.03;65.43;102939.70;1738791;82;21573;-46
2020/12/19 10:36:15;;;;;;;12.07;10.65;;;;;;;8.07;65.28;102942.41;1741206;82;21569;-47
2020/12/19 10:38:44;;;;;;;14.03;10.35;;;;;;;8.10;65.17;102940.28;1734229;82;21156;-46
2020/12/19 10:41:15;;;;;;;12.25;10.13;;;;;;;8.10;64.94;102942.47;1742231;82;21169;-46
2020/12/19 10:43:42;;;;;;;13.58;10.20;;;;;;;8.04;64.90;102938.85;1701213;83;21695;-46
2020/12/19 10:46:11;;;;;;;12.80;9.25;;;;;;;8.00;64.94;102940.51;1701062;84;21438;-47
2020/12/19 10:48:39;;;;;;;12.20;9.30;;;;;;;7.97;64.81;102936.98;1701411;84;21338;-46
2020/12/19 10:51:08;;;;;;;12.80;9.40;;;;;;;7.95;64.82;102936.95;1701130;84;21190;-47
2020/12/19 10:53:40;;;;;;;11.45;9.48;;;;;;;7.94;65.00;102934.30;1696883;84;21266;-48
2020/12/19 10:56:08;;;;;;;11.78;9.50;;;;;;;7.92;64.86;102932.09;1677985;84;21176;-46
2020/12/19 10:58:36;;;;;;;12.75;9.53;;;;;;;7.90;65.02;102930.77;1701130;84;21326;-46
2020/12/19 11:01:05;;;;;;;14.90;11.43;;;;;;;7.90;65.19;102935.95;1701095;83;21325;-47
2020/12/19 11:03:33;;;;;;;12.18;10.13;;;;;;;7.91;65.36;102936.84;1701277;83;21184;-46
2020/12/19 11:06:01;;;;;;;13.72;10.40;;;;;;;7.94;65.32;102933.00;1701431;84;21338;-46
2020/12/19 11:08:30;;;;;;;12.47;10.50;;;;;;;7.93;65.27;102930.82;1701152;83;21144;-46
2020/12/19 11:10:59;;;;;;;15.13;11.45;;;;;;;7.89;65.31;102926.41;1697744;83;21207;-46
2020/12/19 11:13:28;;;;;;;12.40;9.88;;;;;;;7.87;65.49;102928.53;1695450;84;21381;-46
2020/12/19 11:15:58;;;;;;;15.48;11.33;;;;;;;7.85;65.86;102929.77;1701215;83;21179;-47
2020/12/19 11:18:26;;;;;;;12.95;9.78;;;;;;;7.85;66.11;102927.17;1701242;83;21265;-46
2020/12/19 11:20:54;;;;;;;11.75;10.23;;;;;;;7.86;66.01;102921.16;1701104;83;21239;-46
2020/12/19 11:23:23;;;;;;;12.80;10.65;;;;;;;7.86;65.71;102923.76;1701129;83;21330;-47
2020/12/19 11:25:55;;;;;;;16.67;11.00;;;;;;;7.84;65.45;102926.73;1701314;84;21176;-47
2020/12/19 11:28:23;;;;;;;17.00;11.45;;;;;;;7.82;65.37;102924.53;1695098;83;21333;-47
2020/12/19 11:30:52;;;;;;;15.68;12.13;;;;;;;7.80;65.38;102924.91;1693141;83;21204;-46
2020/12/19 11:33:20;;;;;;;11.90;10.35;;;;;;;7.81;65.55;102932.27;1693337;85;21188;-46
2020/12/19 11:35:48;;;;;;;13.43;11.12;;;;;;;7.80;65.48;102924.91;1693170;83;21184;-46